createdAt,value
2023-04-28T00:02:23.634Z,13.93
2023-04-28T00:05:36.038Z,15.03
2023-04-28T00:08:48.795Z,15.95
2023-04-28T00:12:01.012Z,12.88
2023-04-28T00:15:15.512Z,12.40
2023-04-28T00:18:29.237Z,10.68
2023-04-28T00:21:41.614Z,11.23
2023-04-28T00:24:53.780Z,12.43
2023-04-28T00:28:05.922Z,12.20
2023-04-28T00:31:21.957Z,13.00
2023-04-28T00:34:34.342Z,14.85
2023-04-28T00:37:46.588Z,14.35
2023-04-28T00:40:58.847Z,13.20
2023-04-28T00:44:11.468Z,16.35
2023-04-28T00:47:25.413Z,15.83
2023-04-28T00:50:37.793Z,16.03
2023-04-28T00:53:50.847Z,16.08
2023-04-28T00:57:03.637Z,15.70
2023-04-28T01:00:19.057Z,17.50
2023-04-28T01:03:31.490Z,17.53
2023-04-28T01:06:45.121Z,18.35
2023-04-28T01:09:57.104Z,17.83
2023-04-28T01:13:11.106Z,18.90
2023-04-28T01:16:26.357Z,19.15
2023-04-28T01:19:39.056Z,17.93
2023-04-28T01:22:52.720Z,18.70
2023-04-28T01:26:05.613Z,19.18
2023-04-28T01:29:19.077Z,19.18
2023-04-28T01:32:31.708Z,18.85
2023-04-28T01:35:43.994Z,18.90
2023-04-28T01:38:56.184Z,17.98
2023-04-28T01:42:09.141Z,17.43
2023-04-28T01:45:21.608Z,17.65
2023-04-28T01:48:33.823Z,17.03
2023-04-28T01:51:46.136Z,16.63
2023-04-28T01:54:59.702Z,17.43
2023-04-28T01:58:12.209Z,17.35
2023-04-28T02:01:24.352Z,18.95
2023-04-28T02:04:36.826Z,16.45
2023-04-28T02:07:49.111Z,17.78
2023-04-28T02:11:01.958Z,17.50
2023-04-28T02:14:14.592Z,17.43
2023-04-28T02:17:27.303Z,16.43
2023-04-28T02:20:39.505Z,17.38
2023-04-28T02:23:53.339Z,17.75
2023-04-28T02:27:05.527Z,18.63
2023-04-28T02:30:19.668Z,17.43
2023-04-28T02:33:31.805Z,17.93
2023-04-28T02:36:45.168Z,16.50
2023-04-28T02:39:58.542Z,17.58
2023-04-28T02:43:10.916Z,17.00
2023-04-28T02:46:22.975Z,17.60
2023-04-28T02:49:35.131Z,17.30
2023-04-28T02:52:49.053Z,17.58
2023-04-28T02:56:02.474Z,17.45
2023-04-28T02:59:15.276Z,17.90
2023-04-28T03:02:27.442Z,17.38
2023-04-28T03:05:39.798Z,17.58
2023-04-28T03:08:52.094Z,17.88
2023-04-28T03:12:04.080Z,18.35
2023-04-28T03:15:18.712Z,18.68
2023-04-28T03:18:31.292Z,18.70
2023-04-28T03:21:43.985Z,17.10
2023-04-28T03:24:57.852Z,17.35
2023-04-28T03:28:10.902Z,18.08
2023-04-28T03:31:23.109Z,17.80
2023-04-28T03:34:35.487Z,17.28
2023-04-28T03:37:48.713Z,19.13
2023-04-28T03:41:01.068Z,19.48
2023-04-28T03:44:31.765Z,18.53
2023-04-28T03:47:44.402Z,18.40
2023-04-28T03:50:56.779Z,17.13
2023-04-28T03:54:10.598Z,19.13
2023-04-28T03:57:22.832Z,19.35
2023-04-28T04:00:36.916Z,19.63
2023-04-28T04:03:49.234Z,18.88
2023-04-28T04:07:05.094Z,18.70
2023-04-28T04:10:18.829Z,19.35
2023-04-28T04:13:31.141Z,18.60
2023-04-28T04:16:43.531Z,18.95
2023-04-28T04:19:55.675Z,19.13
2023-04-28T04:23:08.015Z,19.83
2023-04-28T04:26:21.933Z,18.28
2023-04-28T04:29:35.974Z,18.13
2023-04-28T04:32:49.785Z,18.63
2023-04-28T04:36:02.149Z,18.23
2023-04-28T04:39:15.554Z,18.20
2023-04-28T05:00:58.002Z,19.45
2023-04-28T05:04:11.296Z,19.73
2023-04-28T05:07:23.836Z,19.20
2023-04-28T05:10:36.002Z,19.08
2023-04-28T05:13:48.869Z,19.73
2023-04-28T05:17:01.587Z,38.10
2023-04-28T05:20:18.026Z,22.25
2023-04-28T05:23:30.434Z,16.75
2023-04-28T05:26:43.457Z,15.98
2023-04-28T06:29:24.950Z,7.03
2023-04-28T06:32:37.796Z,9.30
2023-04-28T06:35:53.257Z,7.88
2023-04-28T06:39:05.997Z,16.15
2023-04-28T06:42:20.916Z,11.30
2023-04-28T06:45:34.916Z,14.25
2023-04-28T06:48:48.932Z,10.45
2023-04-28T06:52:02.466Z,11.95
2023-04-28T06:55:20.605Z,11.15
2023-04-28T06:58:33.426Z,12.45
2023-04-28T07:01:46.270Z,10.85
2023-04-28T07:04:58.746Z,9.68
2023-04-28T07:08:12.177Z,32.03
2023-04-28T07:11:25.216Z,18.30
2023-04-28T07:14:37.730Z,8.78
2023-04-28T07:17:50.089Z,8.68
2023-04-28T07:21:04.832Z,8.40
2023-04-28T07:24:17.985Z,8.88
2023-04-28T07:27:31.061Z,5.55
2023-04-28T07:30:43.523Z,5.15
2023-04-28T07:33:55.797Z,4.60
2023-04-28T07:37:08.919Z,5.75
2023-04-28T07:40:22.012Z,4.50
2023-04-28T07:43:34.180Z,4.03
2023-04-28T07:46:47.327Z,3.60
2023-04-28T07:50:00.818Z,2.70
2023-04-28T07:53:13.123Z,3.23
2023-04-28T07:56:26.222Z,2.80
2023-04-28T07:59:38.861Z,3.18
2023-04-28T08:02:51.578Z,5.23
2023-04-28T08:06:05.151Z,6.65
2023-04-28T08:09:17.863Z,3.73
2023-04-28T08:12:30.354Z,4.15
2023-04-28T08:15:42.796Z,3.45
2023-04-28T08:18:55.422Z,3.73
2023-04-28T08:22:08.423Z,3.30
2023-04-28T08:25:21.051Z,3.15
2023-04-28T08:28:34.357Z,5.48
2023-04-28T08:31:47.514Z,3.53
2023-04-28T08:35:00.714Z,3.05
2023-04-28T08:38:15.518Z,3.30
2023-04-28T08:41:28.189Z,3.08
2023-04-28T08:44:45.014Z,3.40
2023-04-28T08:47:58.432Z,4.25
2023-04-28T08:51:13.010Z,3.98
2023-04-28T08:54:27.055Z,3.30
2023-04-28T08:57:44.783Z,3.35
2023-04-28T09:00:57.501Z,3.60
2023-04-28T09:04:13.473Z,4.58
2023-04-28T09:07:25.425Z,9.23
2023-04-28T09:10:38.431Z,5.90
2023-04-28T09:13:52.987Z,3.20
2023-04-28T09:17:05.706Z,2.70
2023-04-28T09:20:29.658Z,3.45
2023-04-28T09:23:52.939Z,7.00
2023-04-28T09:27:07.843Z,3.85
2023-04-28T09:30:21.535Z,5.75
2023-04-28T09:33:41.779Z,5.13
2023-04-28T09:36:57.699Z,6.35
2023-04-28T09:40:16.968Z,4.10
2023-04-28T09:43:38.460Z,3.58
2023-04-28T09:46:52.504Z,3.43
2023-04-28T09:50:06.889Z,3.80
2023-04-28T09:53:20.497Z,3.68
2023-04-28T09:56:35.517Z,3.28
2023-04-28T09:59:48.812Z,3.73
2023-04-28T10:03:01.563Z,3.50
2023-04-28T10:06:14.890Z,3.20
2023-04-28T10:09:29.282Z,3.10
2023-04-28T10:12:42.188Z,3.95
2023-04-28T10:15:55.843Z,8.28
2023-04-28T10:19:14.044Z,3.98
2023-04-28T10:22:56.761Z,3.23
2023-04-28T10:26:16.612Z,4.03
2023-04-28T10:29:33.312Z,3.50
2023-04-28T10:32:46.153Z,3.40
2023-04-28T10:35:59.276Z,3.43
2023-04-28T10:39:18.794Z,8.48
2023-04-28T10:43:00.890Z,8.95
2023-04-28T10:46:15.220Z,5.45
2023-04-28T10:49:32.112Z,12.93
2023-04-28T10:53:00.862Z,4.43
2023-04-28T10:56:16.947Z,3.30
2023-04-28T10:59:35.214Z,6.40
2023-04-28T11:02:50.465Z,7.70
2023-04-28T11:06:29.213Z,3.38
2023-04-28T11:09:58.309Z,4.13
2023-04-28T11:13:36.292Z,3.30
2023-04-28T11:16:59.827Z,3.20
2023-04-28T11:20:17.139Z,3.95
2023-04-28T11:23:31.584Z,4.18
2023-04-28T11:26:45.229Z,3.98
2023-04-28T11:29:58.552Z,3.65
2023-04-28T11:33:11.454Z,3.70
2023-04-28T11:36:36.164Z,3.40
2023-04-28T11:39:48.279Z,3.10
2023-04-28T11:43:01.919Z,3.63
2023-04-28T11:46:15.313Z,3.03
2023-04-28T11:49:29.303Z,3.63
2023-04-28T11:52:41.731Z,3.43
2023-04-28T11:55:53.918Z,4.50
2023-04-28T11:59:12.685Z,3.20
2023-04-28T12:02:33.964Z,5.25
2023-04-28T12:05:53.284Z,3.70
2023-04-28T12:09:06.233Z,5.25
2023-04-28T12:12:22.993Z,3.20
2023-04-28T12:15:47.739Z,3.58
2023-04-28T12:19:09.235Z,3.13
2023-04-28T12:22:21.432Z,4.40
2023-04-28T12:25:34.391Z,3.50
2023-04-28T12:28:47.544Z,3.30
2023-04-28T12:31:59.805Z,3.40
2023-04-28T12:35:13.928Z,5.65
2023-04-28T12:38:26.136Z,3.48
2023-04-28T12:41:38.569Z,3.28
2023-04-28T12:44:50.664Z,3.30
2023-04-28T12:48:03.595Z,3.05
2023-04-28T12:51:15.707Z,3.35
2023-04-28T12:54:28.014Z,3.05
2023-04-28T12:57:40.730Z,3.40
2023-04-28T13:00:52.952Z,3.05
2023-04-28T13:04:05.177Z,3.45
2023-04-28T13:07:17.772Z,3.13
2023-04-28T13:10:30.057Z,2.65
2023-04-28T13:13:43.204Z,2.88
2023-04-28T13:16:55.730Z,2.98
2023-04-28T13:20:08.433Z,3.68
2023-04-28T13:23:20.395Z,3.50
2023-04-28T13:26:32.637Z,3.85
2023-04-28T13:29:44.878Z,4.95
2023-04-28T13:32:57.753Z,5.73
2023-04-28T13:36:11.580Z,4.10
2023-04-28T13:39:23.734Z,3.15
2023-04-28T13:42:36.032Z,3.33
2023-04-28T13:45:48.273Z,3.10
2023-04-28T13:49:00.447Z,3.30
2023-04-28T13:52:12.851Z,3.28
2023-04-28T13:55:27.679Z,3.05
2023-04-28T13:58:41.738Z,3.10
2023-04-28T14:01:53.981Z,26.13
2023-04-28T14:05:06.195Z,6.90
2023-04-28T14:08:20.045Z,3.75
2023-04-28T14:11:32.546Z,3.25
2023-04-28T14:14:44.979Z,3.03
2023-04-28T14:17:58.009Z,3.00
2023-04-28T14:21:10.480Z,3.40
2023-04-28T14:24:22.802Z,3.48
2023-04-28T14:27:35.095Z,3.18
2023-04-28T14:30:47.437Z,3.55
2023-04-28T14:34:00.136Z,3.10
2023-04-28T14:37:12.413Z,3.33
2023-04-28T14:40:24.987Z,2.98
2023-04-28T14:43:38.261Z,3.73
2023-04-28T14:46:50.919Z,4.03
2023-04-28T14:50:03.384Z,3.18
2023-04-28T14:53:15.481Z,5.08
2023-04-28T14:56:29.107Z,45.33
2023-04-28T14:59:41.961Z,13.85
2023-04-28T15:02:54.545Z,4.30
2023-04-28T15:06:07.231Z,3.48
2023-04-28T15:09:19.527Z,3.30
2023-04-28T15:12:34.488Z,5.95
2023-04-28T15:15:46.953Z,11.60
2023-04-28T15:18:59.839Z,6.03
2023-04-28T15:22:12.091Z,4.15
2023-04-28T15:25:24.490Z,3.08
2023-04-28T15:28:36.598Z,3.58
2023-04-28T15:31:49.565Z,2.90
2023-04-28T15:35:01.872Z,3.90
2023-04-28T15:38:15.223Z,4.50
2023-04-28T15:41:27.858Z,3.18
2023-04-28T15:44:40.229Z,6.23
2023-04-28T15:47:55.362Z,12.25
2023-04-28T15:51:07.744Z,4.03
2023-04-28T15:54:21.245Z,3.25
2023-04-28T15:57:33.343Z,3.60
2023-04-28T16:00:46.353Z,4.20
2023-04-28T16:03:58.853Z,3.40
2023-04-28T16:07:11.338Z,4.15
2023-04-28T16:10:23.866Z,2.90
2023-04-28T16:13:37.540Z,3.55
2023-04-28T16:16:49.719Z,7.43
2023-04-28T16:20:02.924Z,11.48
2023-04-28T16:23:15.452Z,3.15
2023-04-28T16:26:28.361Z,3.20
2023-04-28T16:29:40.369Z,5.43
2023-04-28T16:32:53.185Z,5.70
2023-04-28T16:36:05.925Z,3.30
2023-04-28T16:39:18.365Z,2.78
2023-04-28T16:42:30.939Z,2.95
2023-04-28T16:45:43.236Z,3.20
2023-04-28T16:48:55.443Z,3.20
2023-04-28T16:52:09.787Z,3.35
2023-04-28T16:55:22.019Z,3.15
2023-04-28T16:58:34.188Z,3.35
2023-04-28T17:01:46.685Z,3.35
2023-04-28T17:04:59.736Z,2.90
2023-04-28T17:08:12.378Z,3.00
2023-04-28T17:11:25.209Z,2.98
2023-04-28T17:14:37.590Z,7.30
2023-04-28T17:17:50.942Z,14.40
2023-04-28T17:21:04.266Z,8.35
2023-04-28T17:24:16.610Z,3.78
2023-04-28T17:27:29.306Z,3.40
2023-04-28T17:30:46.913Z,3.20
2023-04-28T17:33:59.284Z,3.98
2023-04-28T17:37:11.656Z,3.75
2023-04-28T17:40:24.474Z,4.03
2023-04-28T17:43:37.848Z,3.58
2023-04-28T17:46:50.500Z,4.28
2023-04-28T17:50:03.761Z,4.33
2023-04-28T17:53:17.092Z,4.48
2023-04-28T17:56:29.913Z,4.63
2023-04-28T17:59:42.938Z,4.55
2023-04-28T18:02:55.818Z,4.55
2023-04-28T18:06:09.109Z,4.83
2023-04-28T18:09:21.352Z,4.70
2023-04-28T18:15:34.509Z,4.05
2023-04-28T18:18:48.254Z,4.60
2023-04-28T18:22:00.764Z,5.03
2023-04-28T18:25:16.687Z,4.98
2023-04-28T18:28:29.112Z,4.98
2023-04-28T18:31:42.487Z,5.20
2023-04-28T18:34:56.435Z,5.43
2023-04-28T18:38:09.142Z,5.83
2023-04-28T18:41:24.028Z,5.70
2023-04-28T18:44:37.212Z,5.20
2023-04-28T18:47:49.745Z,5.95
2023-04-28T18:51:03.896Z,5.78
2023-04-28T18:54:17.141Z,6.28
2023-04-28T18:57:29.561Z,5.33
2023-04-28T19:00:42.801Z,8.78
2023-04-28T19:03:55.748Z,5.65
2023-04-28T19:07:08.380Z,5.80
2023-04-28T19:10:21.230Z,6.00
2023-04-28T19:13:33.580Z,6.20
2023-04-28T19:16:46.023Z,6.70
2023-04-28T19:20:00.831Z,7.03
2023-04-28T19:23:13.420Z,7.58
2023-04-28T19:26:25.845Z,7.65
2023-04-28T19:37:26.222Z,8.75
2023-04-28T19:40:38.327Z,8.88
2023-04-28T19:43:50.831Z,8.33
2023-04-28T19:47:03.044Z,8.50
2023-04-28T19:50:29.180Z,8.03
2023-04-28T19:57:24.001Z,8.43
2023-04-28T20:00:36.198Z,9.00
2023-04-28T20:03:48.474Z,8.25
2023-04-28T20:07:12.088Z,7.93
2023-04-28T20:14:26.093Z,8.43
2023-04-28T20:17:38.836Z,8.45
2023-04-28T20:20:51.187Z,7.80
2023-04-28T20:24:03.403Z,7.90
2023-04-28T20:27:16.017Z,10.43
2023-04-28T20:30:39.649Z,9.75
2023-04-28T20:37:32.394Z,8.23
2023-04-28T20:40:45.605Z,10.33
2023-04-28T20:43:58.008Z,9.28
2023-04-28T20:47:23.252Z,8.95
2023-04-28T20:50:39.546Z,9.05
2023-04-28T20:53:53.394Z,8.78
2023-04-28T20:57:06.040Z,10.35
2023-04-28T21:00:20.927Z,9.80
2023-04-28T21:03:34.212Z,10.30
2023-04-28T21:06:46.831Z,9.48
2023-04-28T21:09:59.270Z,9.43
2023-04-28T21:13:14.386Z,8.98
2023-04-28T21:16:29.178Z,8.65
2023-04-28T21:19:42.700Z,8.83
2023-04-28T21:26:38.198Z,9.15
2023-04-28T21:29:50.946Z,9.30
2023-04-28T21:33:03.605Z,9.83
2023-04-28T21:39:57.887Z,10.20
2023-04-28T21:43:10.830Z,10.93
2023-04-28T21:46:23.041Z,10.40
2023-04-28T21:49:35.317Z,9.65
2023-04-28T21:52:47.341Z,10.73
2023-04-28T21:55:59.523Z,10.28
2023-04-28T21:59:11.880Z,10.63
2023-04-28T22:02:25.513Z,10.88
2023-04-28T22:05:38.809Z,10.50
2023-04-28T22:08:50.987Z,11.50
2023-04-28T22:12:03.289Z,12.38
2023-04-28T22:15:17.490Z,11.65
2023-04-28T22:18:29.817Z,11.63
2023-04-28T22:21:42.412Z,13.08
2023-04-28T22:24:54.571Z,11.73
2023-04-28T22:28:06.619Z,12.00
2023-04-28T22:31:18.699Z,11.95
2023-04-28T22:34:30.962Z,12.10
2023-04-28T22:37:43.266Z,12.90
2023-04-28T22:40:55.439Z,12.18
2023-04-28T22:44:07.637Z,12.08
2023-04-28T22:47:19.860Z,12.58
2023-04-28T22:50:32.185Z,12.78
2023-04-28T22:53:44.479Z,12.68
2023-04-28T22:56:56.591Z,13.13
2023-04-28T23:00:09.615Z,13.00
2023-04-28T23:03:22.132Z,12.88
2023-04-28T23:06:34.833Z,12.43
2023-04-28T23:09:46.842Z,12.80
2023-04-28T23:12:58.893Z,11.75
2023-04-28T23:16:12.546Z,12.40
2023-04-28T23:19:24.856Z,12.88
2023-04-28T23:22:37.058Z,12.10
2023-04-28T23:25:51.257Z,13.10
2023-04-28T23:29:03.672Z,13.10
2023-04-28T23:32:15.879Z,12.88
2023-04-28T23:35:28.186Z,13.20
2023-04-28T23:38:40.435Z,12.55
2023-04-28T23:41:53.208Z,13.50
2023-04-28T23:45:07.163Z,13.60
2023-04-28T23:48:19.326Z,13.73
2023-04-28T23:51:32.439Z,13.93
2023-04-28T23:54:44.792Z,14.33
2023-04-28T23:57:57.013Z,14.93
